Time;durP1;ratioP1;P1;durP2;ratioP2;P2;SDS_P1;SDS_P2;PMS_P1;PMS_P2;Temp;Humidity;BMP_temperature;BMP_pressure;BME280_temperature;BME280_humidity;BME280_pressure;Samples;Min_cycle;Max_cycle;Signal;HPM_P1;HPM_P2
2022/05/03 07:24:46;;;;;;;24.75;15.75;;;;;;;16.29;50.52;100620.82;1642210;85;21901;-72
2022/05/03 07:27:13;;;;;;;23.38;15.60;;;;;;;16.22;50.48;100628.84;1636682;86;22196;-72
2022/05/03 07:29:39;;;;;;;23.92;14.53;;;;;;;16.36;50.55;100626.52;1632824;86;21059;-72
2022/05/03 07:32:06;;;;;;;26.42;13.95;;;;;;;16.63;50.51;100636.06;1642026;86;20943;-72
2022/05/03 07:34:32;;;;;;;17.65;12.98;;;;;;;16.80;50.45;100632.79;1631481;85;21039;-72
2022/05/03 07:36:58;;;;;;;21.90;13.93;;;;;;;17.06;50.37;100632.00;1641273;85;21110;-72
2022/05/03 07:39:24;;;;;;;23.42;13.93;;;;;;;17.18;50.21;100634.89;1648444;85;21055;-72
2022/05/03 07:41:52;;;;;;;19.67;13.60;;;;;;;17.22;50.15;100628.89;1664962;85;21029;-72
2022/05/03 07:44:18;;;;;;;19.45;12.68;;;;;;;17.58;50.04;100635.74;1639583;85;21055;-72
2022/05/03 07:46:44;;;;;;;16.42;12.70;;;;;;;17.90;49.82;100638.38;1635754;85;21062;-72
2022/05/03 07:49:11;;;;;;;18.67;12.40;;;;;;;18.00;49.47;100635.23;1642487;85;21151;-72
2022/05/03 07:51:41;;;;;;;17.55;12.70;;;;;;;17.65;49.18;100637.91;1622223;86;21037;-72
2022/05/03 07:54:09;;;;;;;;;;;;;;;17.71;49.25;100638.41;1626596;86;21496;-73
2022/05/03 07:56:36;;;;;;;18.48;13.38;;;;;;;17.95;49.09;100650.70;1635502;86;20174;-73
2022/05/03 07:59:03;;;;;;;18.27;11.40;;;;;;;18.02;48.90;100652.03;1642501;86;21355;-72
2022/05/03 08:01:29;;;;;;;18.62;11.12;;;;;;;18.05;48.68;100646.20;1634709;86;21142;-72
2022/05/03 08:03:55;;;;;;;19.90;11.48;;;;;;;17.82;48.55;100648.56;1648205;86;21022;-72
2022/05/03 08:06:24;;;;;;;18.05;11.63;;;;;;;17.69;48.40;100644.03;1637073;86;21155;-72
2022/05/03 08:08:52;;;;;;;19.77;12.80;;;;;;;17.65;48.21;100646.84;1638784;86;39949;-72
2022/05/03 08:11:18;;;;;;;15.45;10.25;;;;;;;17.77;48.07;100648.34;1615314;87;21107;-73
2022/05/03 08:13:45;;;;;;;18.07;12.75;;;;;;;17.98;47.96;100656.73;1650066;86;21154;-73
2022/05/03 08:16:18;;;;;;;17.32;11.65;;;;;;;18.11;47.74;100652.12;1632865;86;21530;-72
2022/05/03 08:18:44;;;;;;;17.57;11.25;;;;;;;18.24;47.52;100654.77;1632286;86;21077;-73
2022/05/03 08:21:11;;;;;;;16.65;11.12;;;;;;;18.29;47.19;100661.72;1624534;86;21065;-73
2022/05/03 08:23:40;;;;;;;16.87;10.95;;;;;;;18.20;46.94;100654.88;1631658;86;21065;-73
2022/05/03 08:26:06;;;;;;;14.98;10.48;;;;;;;18.07;46.69;100657.64;1639568;85;21809;-73
2022/05/03 08:28:33;;;;;;;15.00;9.88;;;;;;;17.74;46.59;100652.82;1646010;85;21522;-73
2022/05/03 08:30:59;;;;;;;14.43;9.50;;;;;;;17.65;46.67;100654.92;1629541;86;21080;-72
2022/05/03 08:33:26;;;;;;;14.98;10.08;;;;;;;17.55;46.48;100657.70;1648490;87;21049;-73
2022/05/03 08:35:53;;;;;;;12.78;9.15;;;;;;;17.59;46.39;100653.59;1644530;86;21056;-73
2022/05/03 08:43:48;;;;;;;15.43;10.72;;;;;;;17.96;46.14;100660.98;1656257;86;21085;-72
2022/05/03 08:46:14;;;;;;;10.90;8.73;;;;;;;17.94;46.01;100663.08;1651331;86;21153;-73
2022/05/03 08:48:41;;;;;;;19.48;10.45;;;;;;;17.92;45.80;100657.87;1655335;86;21028;-72
2022/05/03 08:51:11;;;;;;;17.23;10.68;;;;;;;18.04;45.81;100655.36;1609191;86;21086;-73
2022/05/03 08:53:39;;;;;;;18.23;10.58;;;;;;;18.19;45.67;100655.91;1634945;86;21060;-73
2022/05/03 08:56:05;;;;;;;21.15;10.32;;;;;;;18.09;45.50;100648.80;1625279;86;21498;-73
2022/05/03 08:58:31;;;;;;;17.17;8.83;;;;;;;18.02;45.48;100652.03;1633104;87;20977;-72
2022/05/03 09:00:57;;;;;;;13.90;8.60;;;;;;;17.91;45.39;100654.86;1616836;87;21516;-72
2022/05/03 09:03:24;;;;;;;15.75;9.50;;;;;;;17.86;45.31;100656.55;1664637;85;21726;-73
2022/05/03 09:05:52;;;;;;;16.45;8.43;;;;;;;17.84;45.10;100657.26;1661549;86;21080;-72
2022/05/03 09:08:23;;;;;;;14.30;8.25;;;;;;;17.97;45.05;100649.16;1664471;86;21081;-72
2022/05/03 09:10:49;;;;;;;11.55;8.78;;;;;;;18.25;44.95;100649.69;1656937;86;21060;-72
2022/05/03 09:13:22;;;;;;;21.65;9.70;;;;;;;18.52;44.76;100642.83;1631151;87;21032;-72
2022/05/03 09:15:52;;;;;;;15.90;7.15;;;;;;;18.57;44.57;100638.97;1645501;86;21169;-72
2022/05/03 09:18:26;;;;;;;9.03;7.40;;;;;;;18.72;44.35;100642.19;1634251;86;21066;-72
2022/05/03 09:23:46;;;;;;;6.83;5.92;;;;;;;18.86;44.08;100634.31;1647668;86;21073;-72
2022/05/03 09:26:20;;;;;;;8.05;5.80;;;;;;;19.11;43.84;100637.88;1624780;87;21538;-72
2022/05/03 09:29:08;;;;;;;11.75;5.83;;;;;;;19.16;43.58;100631.30;1632096;87;21134;-72
2022/05/03 09:31:42;;;;;;;7.72;5.03;;;;;;;19.40;43.41;100629.11;1614951;87;21060;-72
2022/05/03 09:34:27;;;;;;;7.10;5.10;;;;;;;19.32;42.97;100636.14;1641562;87;21079;-72
2022/05/03 09:36:55;;;;;;;11.15;5.12;;;;;;;19.05;42.71;100639.28;1631140;87;21096;-72
2022/05/03 09:39:28;;;;;;;8.90;6.28;;;;;;;19.15;42.54;100638.27;1621996;87;21059;-72
2022/05/03 09:42:11;;;;;;;9.05;4.90;;;;;;;19.18;42.27;100631.89;1628069;87;21148;-72
2022/05/03 09:44:52;;;;;;;9.25;5.53;;;;;;;19.18;42.00;100637.30;1610070;87;21029;-72
2022/05/03 09:47:21;;;;;;;7.75;5.47;;;;;;;19.18;41.84;100627.84;1625729;86;21067;-72
2022/05/03 09:49:47;;;;;;;8.08;5.53;;;;;;;19.22;41.74;100631.77;1632777;86;21062;-72
2022/05/03 09:52:36;;;;;;;12.43;5.47;;;;;;;19.19;41.50;100619.20;1646686;85;21054;-72
2022/05/03 09:55:05;;;;;;;8.70;6.40;;;;;;;19.21;41.42;100628.75;1626006;87;21422;-72
2022/05/03 09:57:34;;;;;;;11.07;6.53;;;;;;;19.19;41.29;100628.67;1632169;86;21758;-69
2022/05/03 10:00:00;;;;;;;14.23;8.38;;;;;;;19.29;41.32;100632.53;1605242;87;21103;-69
2022/05/03 10:02:29;;;;;;;9.98;5.78;;;;;;;19.52;41.18;100630.61;1644473;86;21038;-69
2022/05/03 10:04:57;;;;;;;9.00;5.72;;;;;;;19.61;41.08;100624.37;1625692;87;21557;-69
2022/05/03 10:07:24;;;;;;;13.90;6.28;;;;;;;19.50;40.83;100621.04;1604215;88;21332;-69
2022/05/03 10:09:50;;;;;;;13.88;6.47;;;;;;;19.33;40.70;100617.53;1629541;87;21039;-69
2022/05/03 10:12:17;;;;;;;7.92;6.17;;;;;;;19.34;40.62;100624.59;1651349;86;21585;-69
2022/05/03 10:14:47;;;;;;;10.30;6.10;;;;;;;19.32;40.52;100621.27;1617487;88;21089;-69
2022/05/03 10:23:30;;;;;;;8.40;6.28;;;;;;;19.29;40.26;100617.66;1631641;86;21026;-70
2022/05/03 10:26:09;;;;;;;9.58;6.10;;;;;;;19.00;40.28;100626.41;1634388;86;21636;-70
2022/05/03 10:29:08;;;;;;;8.60;5.30;;;;;;;19.00;40.42;100614.80;1633324;86;21655;-70
2022/05/03 10:32:02;;;;;;;9.05;5.35;;;;;;;19.05;40.35;100614.95;1633847;86;21083;-70
2022/05/03 10:34:56;;;;;;;11.63;5.75;;;;;;;19.17;40.33;100616.74;1633580;86;21645;-70
2022/05/03 10:37:29;;;;;;;9.98;5.20;;;;;;;19.37;40.26;100610.63;1632501;86;21120;-70
2022/05/03 10:39:58;;;;;;;8.20;5.40;;;;;;;19.63;40.03;100607.41;1631344;86;21595;-70
2022/05/03 10:42:27;;;;;;;17.52;5.75;;;;;;;19.79;39.93;100604.09;1633492;86;21121;-70
2022/05/03 10:44:58;;;;;;;7.55;4.53;;;;;;;19.77;39.89;100598.09;1633939;86;21636;-70
2022/05/03 10:47:50;;;;;;;7.67;5.15;;;;;;;19.77;39.89;100598.09;1633826;86;21920;-70
2022/05/03 10:50:20;;;;;;;8.95;5.12;;;;;;;19.97;39.70;100595.98;1633900;86;21037;-70
2022/05/03 10:53:07;;;;;;;6.25;5.10;;;;;;;19.94;39.48;100593.20;1640478;86;21503;-70
2022/05/03 10:55:40;;;;;;;5.90;4.67;;;;;;;19.82;39.32;100595.52;1625024;86;21088;-70
2022/05/03 10:58:31;;;;;;;14.73;7.53;;;;;;;19.57;39.21;100592.04;1614696;86;21089;-70
2022/05/03 11:01:20;;;;;;;9.90;5.42;;;;;;;19.44;39.12;100591.14;1643628;86;21137;-70
2022/05/03 11:04:00;;;;;;;9.03;5.20;;;;;;;19.28;39.10;100590.86;1634302;86;21568;-70
2022/05/03 11:06:34;;;;;;;8.05;5.22;;;;;;;19.46;39.14;100583.34;1634875;86;22268;-70
2022/05/03 11:11:42;;;;;;;7.85;5.78;;;;;;;19.61;39.05;100578.37;1625990;86;21044;-70
2022/05/03 11:14:22;;;;;;;7.75;5.05;;;;;;;19.75;38.96;100570.41;1612948;87;21084;-70
2022/05/03 11:17:08;;;;;;;10.45;6.05;;;;;;;19.98;38.99;100565.16;1623341;86;21078;-70
2022/05/03 11:19:52;;;;;;;11.03;5.60;;;;;;;20.30;38.80;100568.52;1631174;87;21037;-70
2022/05/03 11:22:27;;;;;;;7.78;5.12;;;;;;;20.32;38.43;100567.23;1627114;87;21043;-70
2022/05/03 11:24:56;;;;;;;12.47;5.95;;;;;;;20.53;38.54;100566.41;1642284;86;21053;-72
2022/05/03 11:27:23;;;;;;;7.08;5.17;;;;;;;20.63;38.30;100563.97;1653195;86;21212;-72
2022/05/03 11:30:00;;;;;;;10.03;5.83;;;;;;;20.66;38.13;100566.21;1651058;85;21911;-72
2022/05/03 11:32:37;;;;;;;9.98;5.62;;;;;;;20.72;38.01;100563.95;1627027;86;21578;-72
2022/05/03 11:35:07;;;;;;;13.03;5.75;;;;;;;20.59;37.73;100555.47;1625502;86;21097;-72
2022/05/03 11:37:34;;;;;;;6.90;4.78;;;;;;;20.56;37.58;100554.58;1625102;88;21078;-72
2022/05/03 11:40:08;;;;;;;6.03;4.75;;;;;;;20.77;37.63;100558.11;1629674;88;21431;-72
2022/05/03 11:42:38;;;;;;;13.65;5.17;;;;;;;20.85;37.38;100547.47;1596568;89;21076;-72
2022/05/03 11:45:06;;;;;;;5.80;4.90;;;;;;;20.93;37.42;100553.91;1636821;87;21040;-72
2022/05/03 11:47:38;;;;;;;5.95;5.20;;;;;;;20.69;37.14;100552.22;1609431;87;21180;-72
2022/05/03 11:50:05;;;;;;;9.18;5.37;;;;;;;20.52;37.09;100553.91;1633908;87;21080;-72
2022/05/03 11:58:00;;;;;;;7.47;5.45;;;;;;;20.00;37.06;100552.20;1625052;88;21098;-71
2022/05/03 12:00:27;;;;;;;7.30;6.05;;;;;;;19.84;36.98;100547.42;1625023;88;21042;-72
2022/05/03 12:02:53;;;;;;;9.63;5.53;;;;;;;19.78;37.01;100545.59;1629820;87;21114;-72
2022/05/03 12:05:22;;;;;;;10.80;5.67;;;;;;;19.67;37.00;100540.93;1630111;88;21113;-71
2022/05/03 12:07:55;;;;;;;9.05;5.92;;;;;;;19.64;37.01;100546.80;1603012;89;21043;-71
2022/05/03 12:10:40;;;;;;;7.55;5.17;;;;;;;19.52;37.07;100548.62;1630058;88;21603;-72
2022/05/03 12:13:14;;;;;;;6.22;5.15;;;;;;;19.46;37.17;100552.23;1602782;89;21072;-72
2022/05/03 12:15:48;;;;;;;7.58;5.17;;;;;;;19.51;37.26;100541.54;1629953;88;21507;-72
2022/05/03 12:18:31;;;;;;;8.63;5.65;;;;;;;19.50;37.25;100537.17;1602848;89;21164;-72
2022/05/03 12:21:15;;;;;;;16.45;14.83;;;;;;;19.48;37.30;100547.41;1602652;89;21094;-72
2022/05/03 12:23:44;;;;;;;8.45;7.60;;;;;;;19.39;37.32;100542.25;1602826;89;21063;-72
2022/05/03 12:26:27;;;;;;;7.80;5.25;;;;;;;19.19;37.45;100538.92;1631112;86;21037;-71
2022/05/03 12:28:57;;;;;;;8.23;6.20;;;;;;;19.17;37.53;100536.98;1629147;88;21071;-72
2022/05/03 12:31:35;;;;;;;8.83;4.95;;;;;;;19.08;37.60;100535.59;1631338;88;21346;-72
2022/05/03 12:34:02;;;;;;;10.65;5.45;;;;;;;18.92;37.68;100534.81;1629810;88;21114;-72
2022/05/03 12:36:42;;;;;;;6.55;5.20;;;;;;;18.89;37.83;100532.55;1602734;89;21539;-71
2022/05/03 12:39:19;;;;;;;12.68;5.80;;;;;;;18.88;37.83;100530.89;1629675;88;21066;-71
2022/05/03 12:42:04;;;;;;;6.72;5.08;;;;;;;18.98;37.94;100520.92;1602858;89;21058;-72
2022/05/03 12:44:31;;;;;;;8.18;5.72;;;;;;;19.05;38.00;100523.88;1631045;87;21233;-72
2022/05/03 12:47:06;;;;;;;8.50;5.72;;;;;;;19.34;38.02;100531.29;1629903;88;21082;-71
2022/05/03 12:49:33;;;;;;;8.70;5.55;;;;;;;19.46;37.86;100520.56;1602748;89;21054;-72
2022/05/03 12:51:59;;;;;;;7.12;5.33;;;;;;;19.49;37.82;100522.02;1631604;86;21515;-72
2022/05/03 12:54:25;;;;;;;13.28;9.98;;;;;;;19.59;37.85;100525.02;1631568;88;21049;-72
2022/05/03 12:59:35;;;;;;;11.93;6.97;;;;;;;19.99;37.80;100516.70;1631065;88;21026;-72
2022/05/03 13:02:03;;;;;;;12.10;6.37;;;;;;;19.84;37.75;100514.94;1629320;88;21051;-72
2022/05/03 13:04:30;;;;;;;9.90;5.95;;;;;;;19.75;37.84;100514.93;1602103;89;21058;-72
2022/05/03 13:06:58;;;;;;;8.33;5.87;;;;;;;19.66;37.82;100513.59;1602099;89;21050;-72
2022/05/03 13:09:24;;;;;;;7.65;5.75;;;;;;;19.51;37.75;100507.20;1631227;88;21842;-71
2022/05/03 13:11:52;;;;;;;9.78;5.55;;;;;;;19.55;37.83;100508.94;1624466;88;21045;-71
2022/05/03 13:14:18;;;;;;;7.60;5.50;;;;;;;19.53;37.80;100510.50;1624700;88;21006;-72
2022/05/03 13:16:45;;;;;;;8.00;5.58;;;;;;;19.56;37.79;100507.89;1625081;87;21069;-71
2022/05/03 13:19:12;;;;;;;7.55;5.67;;;;;;;19.55;37.79;100506.23;1624438;88;21069;-72
2022/05/03 13:21:41;;;;;;;8.85;5.03;;;;;;;19.59;37.76;100507.44;1624909;87;21095;-72
2022/05/03 13:24:08;;;;;;;10.00;5.37;;;;;;;19.51;37.67;100499.61;1624835;87;21541;-72
2022/05/03 13:26:34;;;;;;;8.48;5.22;;;;;;;19.53;37.65;100501.03;1627168;88;21594;-72
2022/05/03 13:29:02;;;;;;;9.30;5.50;;;;;;;19.58;37.69;100495.78;1611023;89;21072;-72
2022/05/03 13:31:29;;;;;;;6.20;4.37;;;;;;;19.54;37.58;100499.98;1627259;88;21055;-72
2022/05/03 13:33:56;;;;;;;8.90;5.85;;;;;;;19.42;37.56;100498.55;1611227;89;21616;-72
2022/05/03 13:41:52;;;;;;;9.68;5.00;;;;;;;19.12;37.54;100495.41;1627585;88;21051;-72
2022/05/03 13:44:18;;;;;;;6.85;5.20;;;;;;;19.10;37.59;100494.83;1610734;89;21137;-71
2022/05/03 13:46:44;;;;;;;8.35;4.62;;;;;;;19.10;37.60;100489.42;1627598;88;21091;-72
2022/05/03 13:49:13;;;;;;;12.03;5.78;;;;;;;19.07;37.61;100496.08;1611093;89;21102;-71
2022/05/03 13:51:38;;;;;;;8.38;5.67;;;;;;;19.10;37.68;100486.20;1627258;88;21027;-71
2022/05/03 13:54:04;;;;;;;9.65;5.55;;;;;;;19.10;37.71;100488.90;1600204;89;21132;-71
2022/05/03 13:56:30;;;;;;;9.43;4.90;;;;;;;19.09;37.78;100489.94;1598573;88;20924;-71
2022/05/03 13:58:56;;;;;;;7.92;5.20;;;;;;;19.04;37.83;100490.29;1627441;88;21129;-72
2022/05/03 14:01:23;;;;;;;6.67;5.00;;;;;;;18.95;37.90;100492.47;1599773;88;21089;-71
2022/05/03 14:03:52;;;;;;;10.58;6.22;;;;;;;18.93;37.94;100490.48;1611353;89;21132;-72
2022/05/03 14:06:19;;;;;;;10.53;4.65;;;;;;;18.96;37.93;100489.52;1611336;89;21056;-71
2022/05/03 14:08:45;;;;;;;9.28;4.85;;;;;;;19.01;37.96;100488.86;1627412;86;21070;-72
2022/05/03 14:11:11;;;;;;;6.85;4.62;;;;;;;18.91;37.88;100489.90;1611211;89;21153;-71
2022/05/03 14:13:38;;;;;;;6.08;4.30;;;;;;;18.77;37.87;100484.31;1627260;88;21062;-71
2022/05/03 14:16:05;;;;;;;7.92;4.62;;;;;;;18.72;37.90;100496.28;1618306;87;21089;-71
2022/05/03 14:18:31;;;;;;;7.45;4.83;;;;;;;18.79;37.96;100489.78;1614927;86;21127;-72
2022/05/03 14:20:57;;;;;;;6.60;4.35;;;;;;;18.89;37.92;100486.60;1618118;87;21097;-72
2022/05/03 14:23:24;;;;;;;6.15;4.45;;;;;;;18.92;37.86;100485.64;1617500;87;21581;-72
2022/05/03 14:25:50;;;;;;;8.38;5.55;;;;;;;19.03;37.88;100484.59;1626679;86;21026;-72
2022/05/03 14:28:19;;;;;;;6.53;4.70;;;;;;;19.14;37.96;100476.56;1648832;86;21068;-72
2022/05/03 14:30:46;;;;;;;8.20;4.33;;;;;;;19.35;37.92;100482.89;1647310;86;21085;-73
2022/05/03 14:33:16;;;;;;;5.60;3.98;;;;;;;19.42;37.82;100473.41;1638847;86;21507;-72
2022/05/03 14:35:42;;;;;;;5.42;4.70;;;;;;;19.55;37.72;100477.81;1643125;86;21151;-72
2022/05/03 14:38:08;;;;;;;6.47;4.72;;;;;;;19.51;37.58;100477.97;1639485;86;21046;-72
2022/05/03 14:40:34;;;;;;;10.90;4.20;;;;;;;19.40;37.46;100478.99;1639336;85;21139;-72
2022/05/03 14:43:02;;;;;;;9.13;4.42;;;;;;;19.26;37.44;100481.54;1639077;85;21792;-72
2022/05/03 14:45:29;;;;;;;8.38;4.62;;;;;;;19.12;37.37;100477.32;1637141;85;21056;-72
2022/05/03 14:47:55;;;;;;;7.35;3.77;;;;;;;19.06;37.30;100475.52;1637570;86;21720;-72
2022/05/03 14:50:21;;;;;;;7.78;4.00;;;;;;;19.13;37.30;100488.45;1642666;86;21651;-72
2022/05/03 14:52:47;;;;;;;4.87;3.02;;;;;;;19.10;37.09;100485.36;1610460;87;21126;-72
2022/05/03 14:55:15;;;;;;;7.25;3.50;;;;;;;19.03;37.01;100482.73;1643842;86;21119;-73
2022/05/03 15:03:09;;;;;;;6.85;3.25;;;;;;;19.05;36.68;100483.32;1635314;85;21057;-73
2022/05/03 15:05:37;;;;;;;6.25;2.92;;;;;;;18.94;36.41;100482.69;1638389;86;21090;-72
2022/05/03 15:08:07;;;;;;;6.80;4.50;;;;;;;18.99;36.33;100483.39;1636998;86;21582;-72
2022/05/03 15:10:33;;;;;;;4.28;2.77;;;;;;;18.99;36.25;100473.41;1636806;86;21547;-72
2022/05/03 15:13:02;;;;;;;8.73;5.67;;;;;;;18.90;35.91;100482.31;1637479;86;21145;-71
2022/05/03 15:15:29;;;;;;;5.58;2.77;;;;;;;18.81;35.77;100478.25;1637624;86;21541;-72
2022/05/03 15:17:56;;;;;;;6.40;2.83;;;;;;;18.78;35.67;100467.05;1648853;86;21130;-71
2022/05/03 15:20:24;;;;;;;3.65;3.00;;;;;;;18.73;35.62;100477.69;1646762;86;21029;-71
2022/05/03 15:25:35;;;;;;;7.15;3.20;;;;;;;18.75;35.51;100474.26;1649328;86;21099;-71
2022/05/03 15:28:01;;;;;;;4.72;2.70;;;;;;;18.66;35.42;100470.16;1633726;86;21094;-71
2022/05/03 15:30:27;;;;;;;7.00;4.17;;;;;;;18.57;35.36;100475.55;1638602;86;21073;-71
2022/05/03 15:32:53;;;;;;;9.48;2.75;;;;;;;18.48;35.25;100476.30;1638922;86;21063;-71
2022/05/03 15:35:19;;;;;;;4.33;2.45;;;;;;;18.56;35.22;100473.88;1660377;86;21066;-72
2022/05/03 15:37:45;;;;;;;8.83;2.70;;;;;;;18.65;35.01;100476.60;1638525;87;21538;-72
2022/05/03 15:40:13;;;;;;;6.05;2.62;;;;;;;18.70;34.77;100476.27;1665031;86;21038;-72
2022/05/03 15:42:39;;;;;;;6.05;2.92;;;;;;;18.68;34.60;100473.48;1660407;86;21054;-72
2022/05/03 15:45:07;;;;;;;8.50;2.98;;;;;;;18.76;34.39;100473.19;1649777;86;21648;-72
2022/05/03 15:47:35;;;;;;;7.97;3.15;;;;;;;18.83;34.30;100473.95;1650381;86;21171;-72
2022/05/03 15:50:11;;;;;;;7.70;2.83;;;;;;;18.99;34.24;100473.92;1660085;86;22124;-71
2022/05/03 15:52:44;;;;;;;3.77;2.80;;;;;;;18.97;34.09;100467.37;1653891;86;21148;-71
2022/05/03 15:55:10;;;;;;;4.87;2.20;;;;;;;18.90;34.01;100469.31;1632010;86;21077;-71
2022/05/03 15:57:39;;;;;;;5.58;2.95;;;;;;;18.81;33.96;100471.49;1633321;87;21033;-72
2022/05/03 16:00:09;;;;;;;5.08;3.20;;;;;;;18.74;33.92;100469.89;1633747;87;21025;-71
2022/05/03 16:02:35;;;;;;;3.80;2.52;;;;;;;18.66;33.92;100470.16;1640740;86;21099;-72
2022/05/03 16:05:01;;;;;;;6.62;2.98;;;;;;;18.53;33.89;100468.41;1657965;86;21144;-72
2022/05/03 16:07:27;;;;;;;12.78;2.85;;;;;;;18.40;33.91;100469.28;1640568;86;21021;-71
2022/05/03 16:09:53;;;;;;;5.62;3.20;;;;;;;18.31;33.97;100469.26;1640543;85;20958;-71
2022/05/03 16:12:19;;;;;;;6.80;2.65;;;;;;;18.27;33.96;100472.09;1646273;86;21099;-72
2022/05/03 16:14:45;;;;;;;5.15;2.52;;;;;;;18.30;34.00;100474.34;1645841;86;21151;-72
2022/05/03 16:17:11;;;;;;;9.95;2.98;;;;;;;18.31;33.96;100468.43;1656302;86;20949;-72
2022/05/03 16:19:38;;;;;;;4.25;2.30;;;;;;;18.26;33.96;100468.27;1650139;85;20945;-72
2022/05/03 16:22:07;;;;;;;5.90;2.47;;;;;;;18.22;33.92;100466.53;1656719;86;21459;-72
2022/05/03 16:24:34;;;;;;;;;;;;;;;18.16;33.92;100469.25;1652186;86;21092;-72
2022/05/03 16:26:59;;;;;;;6.58;2.45;;;;;;;18.07;33.90;100473.27;1651771;86;22023;-72
2022/05/03 16:29:26;;;;;;;5.20;2.77;;;;;;;17.99;33.96;100468.94;1648847;85;21594;-71
2022/05/03 16:31:52;;;;;;;3.92;1.80;;;;;;;17.98;33.96;100466.48;1637217;86;21081;-72
2022/05/03 16:34:19;;;;;;;3.87;2.20;;;;;;;17.91;33.92;100467.84;1633736;86;21160;-72
2022/05/03 16:42:15;;;;;;;6.70;2.47;;;;;;;18.00;33.96;100469.77;1624715;88;21033;-71
2022/05/03 16:44:48;;;;;;;4.35;2.10;;;;;;;17.99;33.92;100464.89;1624746;87;21608;-71
2022/05/03 16:47:15;;;;;;;8.83;2.35;;;;;;;17.96;33.79;100466.68;1623739;87;21113;-71
2022/05/03 16:49:42;;;;;;;5.35;2.60;;;;;;;17.88;33.78;100465.05;1624960;87;21038;-72
2022/05/03 16:52:16;;;;;;;7.17;2.80;;;;;;;17.89;33.87;100464.54;1625038;88;21962;-71
2022/05/03 16:54:44;;;;;;;6.50;2.65;;;;;;;17.85;33.92;100475.45;1624787;88;21106;-71
2022/05/03 16:57:10;;;;;;;4.42;2.72;;;;;;;17.78;33.82;100474.66;1629744;87;21077;-71
2022/05/03 16:59:37;;;;;;;7.33;3.33;;;;;;;17.75;33.82;100476.44;1631218;88;21498;-71
2022/05/03 17:02:04;;;;;;;13.70;3.87;;;;;;;17.75;33.83;100477.78;1630072;86;21054;-71
2022/05/03 17:04:30;;;;;;;7.75;3.80;;;;;;;17.75;33.81;100469.70;1602749;88;21217;-71
2022/05/03 17:06:56;;;;;;;7.05;3.80;;;;;;;17.73;33.85;100477.19;1631477;88;21033;-71
2022/05/03 17:09:22;;;;;;;11.20;3.92;;;;;;;17.69;33.90;100481.34;1630124;88;21046;-71
2022/05/03 17:11:50;;;;;;;11.50;6.05;;;;;;;17.65;33.95;100477.42;1602837;89;21042;-72
2022/05/03 17:14:17;;;;;;;23.90;9.90;;;;;;;17.59;33.97;100479.63;1603103;89;21627;-71
2022/05/03 17:16:44;;;;;;;12.58;6.97;;;;;;;17.54;34.02;100480.75;1602864;89;21062;-71
2022/05/03 17:19:10;;;;;;;18.77;9.18;;;;;;;17.48;34.07;100480.58;1602839;89;21078;-72
2022/05/03 17:21:37;;;;;;;50.92;25.82;;;;;;;17.45;34.13;100483.67;1632079;88;21037;-71
2022/05/03 17:24:05;;;;;;;21.62;10.80;;;;;;;17.41;34.18;100482.98;1624938;88;21565;-71
2022/05/03 17:26:31;;;;;;;6.50;2.60;;;;;;;17.33;34.18;100482.69;1624987;87;21050;-71
2022/05/03 17:28:58;;;;;;;4.55;2.22;;;;;;;17.17;34.29;100493.91;1625307;87;21146;-71
2022/05/03 17:31:26;;;;;;;3.92;2.12;;;;;;;17.06;34.37;100508.05;1629838;88;21114;-71
2022/05/03 17:33:55;;;;;;;3.22;1.95;;;;;;;16.95;34.46;100504.63;1602863;87;21634;-71
2022/05/03 17:36:21;;;;;;;3.62;1.40;;;;;;;16.83;34.58;100506.28;1611465;89;21053;-71
2022/05/03 17:38:48;;;;;;;6.58;1.70;;;;;;;16.70;34.74;100508.47;1629852;87;21054;-71
2022/05/03 17:41:14;;;;;;;3.42;1.60;;;;;;;16.55;34.94;100513.19;1610901;89;21179;-71
2022/05/03 17:43:42;;;;;;;2.50;1.42;;;;;;;16.43;35.17;100516.19;1606472;87;21050;-71
2022/05/03 17:46:08;;;;;;;3.87;1.47;;;;;;;16.31;35.43;100517.30;1602313;89;21535;-71
2022/05/03 17:48:35;;;;;;;2.15;1.42;;;;;;;16.19;35.65;100522.12;1611255;89;21763;-71
2022/05/03 17:51:01;;;;;;;3.22;1.47;;;;;;;16.10;35.91;100520.14;1629507;88;21047;-71
2022/05/03 17:56:13;;;;;;;1.92;1.30;;;;;;;15.90;36.34;100525.44;1629877;88;21607;-70
2022/05/03 17:58:41;;;;;;;4.97;1.55;;;;;;;15.77;36.67;100527.25;1610183;89;21497;-70
2022/05/03 18:01:09;;;;;;;1.80;1.35;;;;;;;15.66;36.88;100531.85;1629946;88;21535;-70
2022/05/03 18:03:36;;;;;;;2.33;1.72;;;;;;;15.57;37.07;100541.96;1602380;89;21535;-70
2022/05/03 18:06:03;;;;;;;4.12;2.45;;;;;;;15.47;37.28;100536.92;1610927;89;21335;-70
2022/05/03 18:08:31;;;;;;;4.12;1.90;;;;;;;15.39;37.46;100537.58;1629057;88;21050;-71
2022/05/03 18:10:57;;;;;;;4.67;2.15;;;;;;;15.29;37.65;100543.31;1622321;87;21251;-70
2022/05/03 18:13:23;;;;;;;2.27;1.87;;;;;;;15.20;37.84;100541.78;1629796;88;21034;-70
2022/05/03 18:15:49;;;;;;;7.20;1.87;;;;;;;15.11;38.04;100544.32;1622413;88;21062;-70
2022/05/03 18:18:16;;;;;;;4.92;2.62;;;;;;;15.01;38.23;100549.20;1630104;87;21158;-70
2022/05/03 18:20:42;;;;;;;9.95;4.78;;;;;;;14.91;38.41;100554.09;1602407;89;21504;-70
2022/05/03 18:23:09;;;;;;;11.15;3.35;;;;;;;14.81;38.62;100552.25;1629681;86;21673;-70
2022/05/03 18:25:35;;;;;;;9.18;4.47;;;;;;;14.72;38.82;100561.45;1611175;89;21041;-70
2022/05/03 18:28:02;;;;;;;14.33;5.30;;;;;;;14.58;39.02;100559.66;1637798;86;21070;-70
2022/05/03 18:30:28;;;;;;;12.75;6.20;;;;;;;14.44;39.27;100563.56;1611828;89;21846;-71
2022/05/03 18:32:56;;;;;;;13.38;6.83;;;;;;;14.31;39.50;100568.77;1584899;89;21066;-70
2022/05/03 18:35:23;;;;;;;17.87;7.42;;;;;;;14.20;39.72;100570.59;1611878;89;21078;-70
2022/05/03 18:37:49;;;;;;;16.32;7.15;;;;;;;14.10;39.97;100573.26;1638346;87;21037;-70
2022/05/03 18:40:16;;;;;;;37.08;15.38;;;;;;;14.02;40.18;100579.55;1639446;87;21098;-70
2022/05/03 18:42:43;;;;;;;45.67;17.02;;;;;;;13.93;40.40;100578.01;1638611;87;21850;-70
2022/05/03 18:45:10;;;;;;;16.75;8.13;;;;;;;13.85;40.62;100585.64;1634154;87;21113;-70
2022/05/03 18:47:38;;;;;;;25.02;7.50;;;;;;;13.79;40.78;100584.22;1639433;87;21062;-70
2022/05/03 18:50:05;;;;;;;23.00;6.17;;;;;;;13.71;41.00;100582.46;1605428;89;21075;-70
2022/05/03 18:52:31;;;;;;;24.67;9.30;;;;;;;13.64;40.99;100584.72;1625046;87;21095;-70
2022/05/03 18:57:42;;;;;;;13.55;5.80;;;;;;;13.53;41.50;100594.56;1661579;86;21088;-70
2022/05/03 19:00:14;;;;;;;15.95;7.55;;;;;;;13.33;41.83;100607.16;1626966;86;21051;-70
2022/05/03 19:02:41;;;;;;;21.48;7.60;;;;;;;13.33;41.83;100607.16;1650797;85;21460;-70
2022/05/03 19:05:08;;;;;;;17.62;9.03;;;;;;;13.22;42.12;100602.25;1654933;85;21080;-70
2022/05/03 19:07:34;;;;;;;18.27;9.88;;;;;;;13.10;42.31;100598.33;1649622;85;21484;-71
2022/05/03 19:10:00;;;;;;;14.83;7.65;;;;;;;13.00;42.53;100603.91;1652307;85;21052;-70
2022/05/03 19:12:27;;;;;;;11.43;6.35;;;;;;;12.96;42.69;100605.78;1651950;84;21055;-70
2022/05/03 19:14:54;;;;;;;36.93;14.98;;;;;;;12.96;42.86;100607.13;1628572;85;21111;-70
2022/05/03 19:17:21;;;;;;;33.58;17.80;;;;;;;12.93;43.01;100610.16;1637180;85;21085;-70
2022/05/03 19:19:47;;;;;;;23.07;10.48;;;;;;;12.81;43.23;100615.09;1677701;84;21141;-70
2022/05/03 19:22:15;;;;;;;22.02;10.43;;;;;;;12.73;43.46;100613.01;1671624;84;21046;-71
2022/05/03 19:32:55;;;;;;;13.30;7.50;;;;;;;12.37;44.32;100617.59;1660367;85;21243;-70
2022/05/03 19:35:22;;;;;;;10.45;6.08;;;;;;;12.31;44.56;100620.97;1635910;86;21128;-70
2022/05/03 19:37:48;;;;;;;10.80;6.28;;;;;;;12.27;44.72;100622.83;1643261;86;21026;-70
2022/05/03 19:40:14;;;;;;;13.22;6.05;;;;;;;12.22;44.90;100624.68;1626399;86;21068;-70
2022/05/03 19:42:40;;;;;;;17.35;7.03;;;;;;;12.15;45.06;100621.04;1636012;86;21053;-70
2022/05/03 19:45:09;;;;;;;27.80;10.65;;;;;;;12.08;45.25;100625.41;1616082;86;21141;-70
2022/05/03 19:47:36;;;;;;;18.52;11.38;;;;;;;11.98;45.42;100625.62;1635717;86;21048;-70
2022/05/03 19:50:03;;;;;;;37.48;16.85;;;;;;;11.88;45.64;100628.18;1635556;86;21937;-70
2022/05/03 19:52:29;;;;;;;31.95;14.75;;;;;;;11.77;45.87;100629.87;1641585;84;21053;-70